Home > Products > Valid Products > TAF

000
FTUS41 KBGM 051737
TAFELM
TAF
KELM 051737Z 0518/0618 36010G14KT P6SM -SHSN BKN040
     FM052300 32006KT P6SM BKN040
     FM060400 VRB03KT P6SM SCT040
     FM061500 24010KT P6SM BKN050=



000
FTUS41 KBGM 051737
TAFITH
TAF
KITH 051737Z 0518/0618 32010G16KT P6SM -SHSN BKN025
     FM052300 30007KT P6SM BKN040
     FM061500 23010KT P6SM BKN040=



000
FTUS41 KBGM 051737
TAFAVP
TAF
KAVP 051737Z 0518/0618 34010G18KT P6SM BKN050
     FM052300 31008KT P6SM BKN050
     FM060400 VRB03KT P6SM SKC
     FM061500 23008KT P6SM BKN100=



000
FTUS41 KBGM 051737
TAFBGM
TAF
KBGM 051737Z 0518/0618 35012G16KT P6SM -SHSN BKN040
      TEMPO 0518/0521 5SM -SHSN OVC025
     FM052300 32006KT P6SM BKN040
     FM060400 VRB03KT P6SM SCT040
     FM061500 24010KT P6SM BKN045=



000
FTUS41 KBGM 051737
TAFSYR
TAF
KSYR 051737Z 0518/0618 31010G15KT P6SM BKN040
     FM052300 28006KT P6SM BKN040
     FM060400 22004KT P6SM BKN040
     FM061500 24010KT P6SM BKN040=



000
FTUS41 KBGM 051159 CCB
TAFBGM
TAF COR
KBGM 051159Z 0512/0612 35011KT P6SM SCT050 OVC100
      TEMPO 0512/0514 BKN025
     FM051500 33012G20KT P6SM SCT050
     FM052300 32009KT P6SM FEW040
     FM060600 24005KT P6SM FEW040 SCT250=



000
FTUS41 KBGM 051159 CCB
TAFBGM
TAF COR
KBGM 051159Z 0512/0612 35011KT P6SM SCT050 OVC100
      TEMPO 0512/0514 BKN025
     FM051500 33012G20KT P6SM SCT050
     FM052300 32009KT P6SM FEW040
     FM060600 24005KT P6SM FEW040 SCT250=



000
FTUS41 KBGM 051151 CCA
TAFELM
TAF COR
KELM 051151Z 0512/0612 35007KT P6SM BKN050
      TEMPO 0512/0514 5SM -SN OVC020
     FM051500 33010G16KT P6SM BKN050
     FM052300 VRB04KT P6SM SCT040=



000
FTUS41 KBGM 051151 CCA
TAFELM
TAF COR
KELM 051151Z 0512/0612 35007KT P6SM BKN050
      TEMPO 0512/0514 5SM -SN OVC020
     FM051500 33010G16KT P6SM BKN050
     FM052300 VRB04KT P6SM SCT040=



000
FTUS41 KBGM 051121
TAFAVP
TAF
KAVP 051121Z 0512/0612 36007KT P6SM OVC080
     FM051500 33012G18KT P6SM SCT060
     FM052300 32007KT P6SM FEW040
     FM060400 VRB03KT P6SM SCT250=



000
FTUS41 KBGM 051121
TAFBGM
TAF
KBGM 051121Z 0512/0612 35009KT P6SM SCT050 OVC100
     FM051500 33012G20KT P6SM SCT050
     FM052300 32009KT P6SM FEW040
     FM060600 24005KT P6SM FEW040 SCT250=



000
FTUS41 KBGM 051121
TAFITH
TAF
KITH 051121Z 0512/0612 34007KT P6SM FEW035 BKN060
     FM051600 32010G18KT P6SM SCT050
     FM052300 31008KT P6SM SCT040
     FM060400 VRB04KT P6SM SCT050=



000
FTUS41 KBGM 051121
TAFELM
TAF
KELM 051121Z 0512/0612 35007KT P6SM BKN050
     FM051500 33010G16KT P6SM BKN050
     FM052300 VRB04KT P6SM SCT040=



000
FTUS41 KBGM 051121
TAFSYR
TAF
KSYR 051121Z 0512/0612 30008KT P6SM BKN070 OVC150
     FM051500 31010G16KT P6SM BKN050
     FM052300 28008KT P6SM SCT040
     FM060400 24007KT P6SM BKN040=



000
FTUS41 KBGM 051121
TAFELM
TAF
KELM 051121Z 0512/0612 35007KT P6SM BKN050
     FM051500 33010G16KT P6SM BKN050
     FM052300 VRB04KT P6SM SCT040=



000
FTUS41 KBGM 051121
TAFBGM
TAF
KBGM 051121Z 0512/0612 35009KT P6SM SCT050 OVC100
     FM051500 33012G20KT P6SM SCT050
     FM052300 32009KT P6SM FEW040
     FM060600 24005KT P6SM FEW040 SCT250=



000
FTUS41 KBGM 051121
TAFAVP
TAF
KAVP 051121Z 0512/0612 36007KT P6SM OVC080
     FM051500 33012G18KT P6SM SCT060
     FM052300 32007KT P6SM FEW040
     FM060400 VRB03KT P6SM SCT250=



000
FTUS41 KBGM 051121
TAFSYR
TAF
KSYR 051121Z 0512/0612 30008KT P6SM BKN070 OVC150
     FM051500 31010G16KT P6SM BKN050
     FM052300 28008KT P6SM SCT040
     FM060400 24007KT P6SM BKN040=



000
FTUS41 KBGM 051121
TAFITH
TAF
KITH 051121Z 0512/0612 34007KT P6SM FEW035 BKN060
     FM051600 32010G18KT P6SM SCT050
     FM052300 31008KT P6SM SCT040
     FM060400 VRB04KT P6SM SCT050=



000
FTUS41 KBGM 050902 AAA
TAFBGM
TAF AMD
KBGM 050902Z 0509/0606 35007KT P6SM BKN050 OVC100
     FM051500 33012G20KT P6SM SCT050
     FM052300 32009KT P6SM SCT040=



000
FTUS41 KBGM 050902 AAA
TAFSYR
TAF AMD
KSYR 050902Z 0509/0606 30006KT P6SM BKN070 OVC150
     FM051500 31010G16KT P6SM BKN050
     FM052200 28008KT P6SM SCT040=



000
FTUS41 KBGM 050902 AAA
TAFAVP
TAF AMD
KAVP 050902Z 0509/0606 36007KT P6SM OVC050
     FM051500 33012G18KT P6SM SCT050
     FM052300 32007KT P6SM FEW040=



000
FTUS41 KBGM 050902 AAA
TAFITH
TAF AMD
KITH 050902Z 0509/0606 34005KT P6SM FEW018 BKN060
      TEMPO 0509/0511 OVC018
     FM051600 32010G18KT P6SM SCT050
     FM052300 31008KT P6SM SCT040=



000
FTUS41 KBGM 050902 AAA
TAFELM
TAF AMD
KELM 050902Z 0509/0606 VRB04KT P6SM BKN050
     FM051400 33010G16KT P6SM BKN050
     FM052300 29006KT P6SM SCT040=



000
FTUS41 KBGM 050902 AAA
TAFBGM
TAF AMD
KBGM 050902Z 0509/0606 35007KT P6SM BKN050 OVC100
     FM051500 33012G20KT P6SM SCT050
     FM052300 32009KT P6SM SCT040=



000
FTUS41 KBGM 050902 AAA
TAFAVP
TAF AMD
KAVP 050902Z 0509/0606 36007KT P6SM OVC050
     FM051500 33012G18KT P6SM SCT050
     FM052300 32007KT P6SM FEW040=



000
FTUS41 KBGM 050902 AAA
TAFSYR
TAF AMD
KSYR 050902Z 0509/0606 30006KT P6SM BKN070 OVC150
     FM051500 31010G16KT P6SM BKN050
     FM052200 28008KT P6SM SCT040=



000
FTUS41 KBGM 050902 AAA
TAFELM
TAF AMD
KELM 050902Z 0509/0606 VRB04KT P6SM BKN050
     FM051400 33010G16KT P6SM BKN050
     FM052300 29006KT P6SM SCT040=



000
FTUS41 KBGM 050902 AAA
TAFITH
TAF AMD
KITH 050902Z 0509/0606 34005KT P6SM FEW018 BKN060
      TEMPO 0509/0511 OVC018
     FM051600 32010G18KT P6SM SCT050
     FM052300 31008KT P6SM SCT040=



000
FTUS41 KBGM 050535
TAFSYR
TAF
KSYR 050535Z 0506/0606 30006KT P6SM BKN050
     FM051500 31010G16KT P6SM BKN050
     FM052200 28008KT P6SM SCT040=



000
FTUS41 KBGM 050535
TAFAVP
TAF
KAVP 050535Z 0506/0606 35007KT P6SM SCT040 OVC090
     FM051500 33012G18KT P6SM SCT050
     FM052300 32007KT P6SM FEW040=



000
FTUS41 KBGM 050535
TAFELM
TAF
KELM 050535Z 0506/0606 VRB04KT P6SM FEW020 BKN050
      TEMPO 0506/0509 BKN020
     FM051400 33010G16KT P6SM BKN050
     FM052300 29006KT P6SM SCT040=



000
FTUS41 KBGM 050535
TAFSYR
TAF
KSYR 050535Z 0506/0606 30006KT P6SM BKN050
     FM051500 31010G16KT P6SM BKN050
     FM052200 28008KT P6SM SCT040=



000
FTUS41 KBGM 050535
TAFAVP
TAF
KAVP 050535Z 0506/0606 35007KT P6SM SCT040 OVC090
     FM051500 33012G18KT P6SM SCT050
     FM052300 32007KT P6SM FEW040=



000
FTUS41 KBGM 050535
TAFBGM
TAF
KBGM 050535Z 0506/0606 34008KT P6SM BKN040
     FM051500 33012G20KT P6SM SCT050
     FM052300 32009KT P6SM SCT040=



000
FTUS41 KBGM 050535
TAFITH
TAF
KITH 050535Z 0506/0606 33007KT P6SM FEW030 BKN050
      TEMPO 0506/0510 OVC030
     FM051600 32010G18KT P6SM SCT050
     FM052300 31008KT P6SM SCT040=



000
FTUS41 KBGM 050535
TAFBGM
TAF
KBGM 050535Z 0506/0606 34008KT P6SM BKN040
     FM051500 33012G20KT P6SM SCT050
     FM052300 32009KT P6SM SCT040=



000
FTUS41 KBGM 050535
TAFITH
TAF
KITH 050535Z 0506/0606 33007KT P6SM FEW030 BKN050
      TEMPO 0506/0510 OVC030
     FM051600 32010G18KT P6SM SCT050
     FM052300 31008KT P6SM SCT040=



000
FTUS41 KBGM 050535
TAFELM
TAF
KELM 050535Z 0506/0606 VRB04KT P6SM FEW020 BKN050
      TEMPO 0506/0509 BKN020
     FM051400 33010G16KT P6SM BKN050
     FM052300 29006KT P6SM SCT040=



000
FTUS41 KBGM 050402 AAA
TAFITH
TAF AMD
KITH 050402Z 0504/0524 33005KT P6SM BKN025 OVC040
     FM051400 32012KT P6SM BKN045
     FM052200 32008KT P6SM SCT040=



000
FTUS41 KBGM 050402 AAA
TAFITH
TAF AMD
KITH 050402Z 0504/0524 33005KT P6SM BKN025 OVC040
     FM051400 32012KT P6SM BKN045
     FM052200 32008KT P6SM SCT040=



000
FTUS41 KBGM 042336
TAFELM
TAF
KELM 042336Z 0500/0524 34004KT P6SM OVC040
     FM051500 33010G16KT P6SM BKN040
     FM052200 32008KT P6SM SCT035=



000
FTUS41 KBGM 042336
TAFSYR
TAF
KSYR 042336Z 0500/0524 30006KT P6SM BKN050
     FM051500 32012KT P6SM BKN045
     FM052100 30010KT P6SM SCT040=



000
FTUS41 KBGM 042336
TAFAVP
TAF
KAVP 042336Z 0500/0524 35007KT P6SM SCT050 BKN150
     FM050600 35009KT P6SM BKN045
     FM051600 33012G20KT P6SM SCT045 BKN080
     FM052100 32010KT P6SM SCT045=



000
FTUS41 KBGM 042336
TAFBGM
TAF
KBGM 042336Z 0500/0524 35007KT P6SM BKN040
     FM051500 33012G20KT P6SM BKN045
     FM052200 32010KT P6SM SCT040=



000
FTUS41 KBGM 042336
TAFITH
TAF
KITH 042336Z 0500/0524 34005KT P6SM OVC040
     FM051400 32012KT P6SM BKN045
     FM052200 32008KT P6SM SCT040=



000
FTUS41 KBGM 042132 AAA
TAFITH
TAF AMD
KITH 042132Z 0422/0518 32007KT P6SM BKN045
     FM050400 33005KT P6SM BKN020
     FM051400 32012G22KT P6SM BKN025 OVC050=



000
FTUS41 KBGM 042049 AAA
TAFELM
TAF AMD
KELM 042049Z 0421/0518 30010KT P6SM OVC050
     FM042300 34004KT P6SM OVC040
     FM050400 36006KT P6SM SCT024 OVC050
     FM051500 33010G18KT P6SM BKN035=



000
FTUS41 KBGM 042049 AAA
TAFSYR
TAF AMD
KSYR 042049Z 0421/0518 30010KT P6SM -RA SCT030 OVC050
     FM050300 32006KT P6SM BKN040
     FM050800 30004KT P6SM FEW030
     FM051500 29012G20KT P6SM BKN028 OVC060=



000
FTUS41 KBGM 042049 AAA
TAFSYR
TAF AMD
KSYR 042049Z 0421/0518 30010KT P6SM -RA SCT030 OVC050
     FM050300 32006KT P6SM BKN040
     FM050800 30004KT P6SM FEW030
     FM051500 29012G20KT P6SM BKN028 OVC060=



000
FTUS41 KBGM 042049 AAA
TAFELM
TAF AMD
KELM 042049Z 0421/0518 30010KT P6SM OVC050
     FM042300 34004KT P6SM OVC040
     FM050400 36006KT P6SM SCT024 OVC050
     FM051500 33010G18KT P6SM BKN035=



000
FTUS41 KBGM 042049 AAB
TAFBGM
TAF AMD
KBGM 042049Z 0421/0518 31008KT P6SM BKN035 OVC050
     FM042200 34004KT P6SM BKN040
     FM050400 35006KT P6SM FEW030
     FM051500 32012G20KT P6SM BKN050=



000
FTUS41 KBGM 041724
TAFSYR
TAF
KSYR 041724Z 0418/0518 27011KT P6SM SCT030 OVC050
      TEMPO 0419/0421 BKN030
     FM050300 32006KT P6SM BKN040
     FM050800 30004KT P6SM FEW030
     FM051500 29012G20KT P6SM BKN028 OVC060=



000
FTUS41 KBGM 041724
TAFITH
TAF
KITH 041724Z 0418/0518 29010G17KT P6SM BKN040 OVC060
     FM042300 32007KT P6SM SCT025 BKN050
     FM050400 33005KT P6SM BKN020
     FM051400 32012G22KT P6SM BKN025 OVC050=



000
FTUS41 KBGM 041724
TAFBGM
TAF
KBGM 041724Z 0418/0518 30010G16KT P6SM BKN035 OVC050
     FM042200 34004KT P6SM BKN040
     FM050400 35006KT P6SM FEW030
     FM051500 32012G20KT P6SM BKN050=



000
FTUS41 KBGM 041724
TAFAVP
TAF
KAVP 041724Z 0418/0518 33011KT P6SM SCT035 BKN050
     FM042100 35007KT P6SM FEW030 BKN090
     FM050600 36009KT P6SM SCT028 BKN150
     FM051600 32013G21KT P6SM SCT035 BKN080=



000
FTUS41 KBGM 041724
TAFELM
TAF
KELM 041724Z 0418/0518 27011G16KT P6SM OVC050
     FM042300 34004KT P6SM OVC040
     FM050400 36006KT P6SM SCT024 OVC050
     FM051500 33010G18KT P6SM BKN035=



000
FTUS41 KBGM 041139
TAFAVP
TAF
KAVP 041139Z 0412/0512 33008KT P6SM SCT030 BKN050
     FM042100 34008KT P6SM FEW040 BKN200=



000
FTUS41 KBGM 041139
TAFELM
TAF
KELM 041139Z 0412/0512 29008KT P6SM BKN070
     FM042300 35004KT P6SM BKN050=



000
FTUS41 KBGM 041139
TAFBGM
TAF
KBGM 041139Z 0412/0512 28008KT P6SM FEW025 BKN060
      TEMPO 0414/0417 OVC025
     FM041700 31010KT P6SM BKN035
     FM042200 34006KT P6SM BKN040 OVC250=



000
FTUS41 KBGM 041139
TAFITH
TAF
KITH 041139Z 0412/0512 29010KT P6SM BKN040
     FM050400 33005KT P6SM BKN020=



000
FTUS41 KBGM 041139
TAFSYR
TAF
KSYR 041139Z 0412/0512 26010KT P6SM FEW030 SCT050
      TEMPO 0415/0419 BKN030
     FM041900 28012KT P6SM BKN040
     FM050000 31007KT P6SM BKN040=



000
FTUS41 KBGM 041139
TAFITH
TAF
KITH 041139Z 0412/0512 29010KT P6SM BKN040
     FM050400 33005KT P6SM BKN020=



000
FTUS41 KBGM 041139
TAFAVP
TAF
KAVP 041139Z 0412/0512 33008KT P6SM SCT030 BKN050
     FM042100 34008KT P6SM FEW040 BKN200=



000
FTUS41 KBGM 041139
TAFSYR
TAF
KSYR 041139Z 0412/0512 26010KT P6SM FEW030 SCT050
      TEMPO 0415/0419 BKN030
     FM041900 28012KT P6SM BKN040
     FM050000 31007KT P6SM BKN040=



000
FTUS41 KBGM 041139
TAFELM
TAF
KELM 041139Z 0412/0512 29008KT P6SM BKN070
     FM042300 35004KT P6SM BKN050=



000
FTUS41 KBGM 041139
TAFBGM
TAF
KBGM 041139Z 0412/0512 28008KT P6SM FEW025 BKN060
      TEMPO 0414/0417 OVC025
     FM041700 31010KT P6SM BKN035
     FM042200 34006KT P6SM BKN040 OVC250=



000
FTUS41 KBGM 040941 AAC
TAFAVP
TAF AMD
KAVP 040941Z 0410/0506 33008KT P6SM OVC012
     FM041100 33008KT P6SM SCT025
     FM042100 34008KT P6SM FEW040 BKN200=



000
FTUS41 KBGM 040900 AAA
TAFSYR
TAF AMD
KSYR 040900Z 0409/0506 25010KT P6SM FEW070
     FM041400 27012KT P6SM OVC030
     FM041900 28012KT P6SM BKN040
     FM050000 31007KT P6SM BKN040=



000
FTUS41 KBGM 040900 AAA
TAFSYR
TAF AMD
KSYR 040900Z 0409/0506 25010KT P6SM FEW070
     FM041400 27012KT P6SM OVC030
     FM041900 28012KT P6SM BKN040
     FM050000 31007KT P6SM BKN040=



000
FTUS41 KBGM 040900 AAB
TAFBGM
TAF AMD
KBGM 040900Z 0409/0506 28008KT P6SM SCT030 BKN060
      TEMPO 0409/0410 OVC030
     FM041400 29009KT P6SM BKN025
     FM041700 31010KT P6SM BKN035
     FM042200 34006KT P6SM BKN040 OVC250=



000
FTUS41 KBGM 040900 AAA
TAFITH
TAF AMD
KITH 040900Z 0409/0506 28007KT P6SM BKN060
     FM041200 29008KT P6SM OVC025
     FM041600 30010KT P6SM SCT030
     FM050100 33005KT P6SM BKN020=



000
FTUS41 KBGM 040900 AAB
TAFAVP
TAF AMD
KAVP 040900Z 0409/0506 33008KT P6SM OVC012
      TEMPO 0409/0410 -RA OVC009
     FM041100 33008KT P6SM SCT025
     FM042100 34008KT P6SM FEW040 BKN200=



000
FTUS41 KBGM 040900 AAB
TAFELM
TAF AMD
KELM 040900Z 0409/0506 29008KT P6SM BKN070
     FM042300 35004KT P6SM BKN050 OVC250=



000
FTUS41 KBGM 040900 AAA
TAFITH
TAF AMD
KITH 040900Z 0409/0506 28007KT P6SM BKN060
     FM041200 29008KT P6SM OVC025
     FM041600 30010KT P6SM SCT030
     FM050100 33005KT P6SM BKN020=



000
FTUS41 KBGM 040900 AAB
TAFELM
TAF AMD
KELM 040900Z 0409/0506 29008KT P6SM BKN070
     FM042300 35004KT P6SM BKN050 OVC250=



000
FTUS41 KBGM 040900 AAB
TAFAVP
TAF AMD
KAVP 040900Z 0409/0506 33008KT P6SM OVC012
      TEMPO 0409/0410 -RA OVC009
     FM041100 33008KT P6SM SCT025
     FM042100 34008KT P6SM FEW040 BKN200=



000
FTUS41 KBGM 040900 AAB
TAFBGM
TAF AMD
KBGM 040900Z 0409/0506 28008KT P6SM SCT030 BKN060
      TEMPO 0409/0410 OVC030
     FM041400 29009KT P6SM BKN025
     FM041700 31010KT P6SM BKN035
     FM042200 34006KT P6SM BKN040 OVC250=



000
FTUS41 KBGM 040710 AAA
TAFAVP
TAF AMD
KAVP 040710Z 0407/0506 VRB04KT P6SM OVC012
      TEMPO 0407/0409 OVC008
     FM041100 31008KT P6SM SCT025
     FM042100 34008KT P6SM FEW040 BKN200=



000
FTUS41 KBGM 040700 AAA
TAFELM
TAF AMD
KELM 040700Z 0407/0506 29008KT P6SM BKN040
     FM042300 35004KT P6SM BKN050 OVC250=



000
FTUS41 KBGM 040700 AAA
TAFELM
TAF AMD
KELM 040700Z 0407/0506 29008KT P6SM BKN040
     FM042300 35004KT P6SM BKN050 OVC250=



000
FTUS41 KBGM 040536
TAFITH
TAF
KITH 040536Z 0406/0506 28007KT P6SM SCT025 BKN040
      TEMPO 0406/0407 OVC025
     FM041200 29008KT P6SM OVC025
     FM041600 30010KT P6SM SCT030
     FM050100 33005KT P6SM BKN020=



000
FTUS41 KBGM 040536
TAFITH
TAF
KITH 040536Z 0406/0506 28007KT P6SM SCT025 BKN040
      TEMPO 0406/0407 OVC025
     FM041200 29008KT P6SM OVC025
     FM041600 30010KT P6SM SCT030
     FM050100 33005KT P6SM BKN020=



000
FTUS41 KBGM 040536
TAFAVP
TAF
KAVP 040536Z 0406/0506 VRB04KT P6SM OVC012
     FM041100 31008KT P6SM SCT025
     FM042100 34008KT P6SM FEW040 BKN200=



000
FTUS41 KBGM 040536
TAFBGM
TAF
KBGM 040536Z 0406/0506 27007KT P6SM OVC012
      TEMPO 0406/0407 -RA OVC009
     FM041000 28008KT P6SM SCT015
     FM041400 29009KT P6SM BKN025
     FM041700 31010KT P6SM BKN035
     FM042200 34006KT P6SM BKN040 OVC250=



000
FTUS41 KBGM 040536
TAFELM
TAF
KELM 040536Z 0406/0506 27006KT P6SM SCT030
      TEMPO 0406/0408 OVC030
     FM041500 29009KT P6SM BKN040
     FM042300 35004KT P6SM BKN050 OVC250=



000
FTUS41 KBGM 040536
TAFSYR
TAF
KSYR 040536Z 0406/0506 25010KT P6SM OVC040
     FM040800 25010KT P6SM FEW040
     FM041400 27012KT P6SM OVC030
     FM041900 28012KT P6SM BKN040
     FM050000 31007KT P6SM BKN040=



000
FTUS41 KBGM 040536
TAFAVP
TAF
KAVP 040536Z 0406/0506 VRB04KT P6SM OVC012
     FM041100 31008KT P6SM SCT025
     FM042100 34008KT P6SM FEW040 BKN200=



000
FTUS41 KBGM 040536
TAFBGM
TAF
KBGM 040536Z 0406/0506 27007KT P6SM OVC012
      TEMPO 0406/0407 -RA OVC009
     FM041000 28008KT P6SM SCT015
     FM041400 29009KT P6SM BKN025
     FM041700 31010KT P6SM BKN035
     FM042200 34006KT P6SM BKN040 OVC250=



000
FTUS41 KBGM 040536
TAFELM
TAF
KELM 040536Z 0406/0506 27006KT P6SM SCT030
      TEMPO 0406/0408 OVC030
     FM041500 29009KT P6SM BKN040
     FM042300 35004KT P6SM BKN050 OVC250=



000
FTUS41 KBGM 040536
TAFSYR
TAF
KSYR 040536Z 0406/0506 25010KT P6SM OVC040
     FM040800 25010KT P6SM FEW040
     FM041400 27012KT P6SM OVC030
     FM041900 28012KT P6SM BKN040
     FM050000 31007KT P6SM BKN040=



000
FTUS41 KBGM 040446 AAA
TAFELM
TAF AMD
KELM 040446Z 0405/0424 27006KT P6SM OVC025
     FM040600 28006KT P6SM SCT025 BKN050
     FM041500 29010KT P6SM BKN035=



000
FTUS41 KBGM 040446 AAA
TAFELM
TAF AMD
KELM 040446Z 0405/0424 27006KT P6SM OVC025
     FM040600 28006KT P6SM SCT025 BKN050
     FM041500 29010KT P6SM BKN035=



000
FTUS41 KBGM 040442 AAB
TAFBGM
TAF AMD
KBGM 040442Z 0405/0424 26006KT P6SM OVC009
     FM040700 28008KT P6SM OVC012
     FM041400 29010KT P6SM SCT015 BKN040=



000
FTUS41 KBGM 040301 AAA
TAFSYR
TAF AMD
KSYR 040301Z 0403/0424 26010KT P6SM OVC040
     FM041300 27012KT P6SM OVC035=



000
FTUS41 KBGM 040300 AAA
TAFAVP
TAF AMD
KAVP 040300Z 0403/0424 22005KT P6SM OVC015
     FM040900 28007KT P6SM SCT015 OVC060
     FM041500 30010KT P6SM BKN100=



000
FTUS41 KBGM 040112 AAB
TAFBGM
TAF AMD
KBGM 040112Z 0401/0424 23007KT P6SM BKN015
      TEMPO 0401/0403 SCT015
     FM040500 26006KT P6SM OVC015
     FM041400 29010KT P6SM SCT015 BKN040=



000
FTUS41 KBGM 032337
TAFAVP
TAF
KAVP 032337Z 0400/0424 22005KT P6SM SCT020 BKN050
      TEMPO 0401/0404 BKN025
     FM040400 23005KT P6SM BKN025
     FM040800 28007KT P6SM SCT025 OVC060
     FM041500 30010KT P6SM BKN100=



000
FTUS41 KBGM 032337
TAFBGM
TAF
KBGM 032337Z 0400/0424 23007KT P6SM OVC025
     FM040300 26006KT P6SM OVC015
     FM041400 29010KT P6SM SCT015 BKN040=



000
FTUS41 KBGM 032337
TAFELM
TAF
KELM 032337Z 0400/0424 25006KT P6SM OVC018
     FM040600 28006KT P6SM SCT020 BKN050
     FM041500 29010KT P6SM BKN035=



000
FTUS41 KBGM 032337
TAFSYR
TAF
KSYR 032337Z 0400/0424 22007KT P6SM SCT025 BKN060
      TEMPO 0400/0402 BKN025
     FM040400 25008KT P6SM OVC050
     FM041300 27012KT P6SM OVC035=



000
FTUS41 KBGM 032337
TAFITH
TAF
KITH 032337Z 0400/0424 21007KT P6SM BKN015 OVC050
     FM040600 28007KT P6SM SCT025 BKN040
     FM041100 30010KT P6SM OVC025=



000
FTUS41 KBGM 032337
TAFELM
TAF
KELM 032337Z 0400/0424 25006KT P6SM OVC018
     FM040600 28006KT P6SM SCT020 BKN050
     FM041500 29010KT P6SM BKN035=



000
FTUS41 KBGM 032337
TAFAVP
TAF
KAVP 032337Z 0400/0424 22005KT P6SM SCT020 BKN050
      TEMPO 0401/0404 BKN025
     FM040400 23005KT P6SM BKN025
     FM040800 28007KT P6SM SCT025 OVC060
     FM041500 30010KT P6SM BKN100=



000
FTUS41 KBGM 032337
TAFBGM
TAF
KBGM 032337Z 0400/0424 23007KT P6SM OVC025
     FM040300 26006KT P6SM OVC015
     FM041400 29010KT P6SM SCT015 BKN040=



000
FTUS41 KBGM 032337
TAFITH
TAF
KITH 032337Z 0400/0424 21007KT P6SM BKN015 OVC050
     FM040600 28007KT P6SM SCT025 BKN040
     FM041100 30010KT P6SM OVC025=



000
FTUS41 KBGM 032337
TAFSYR
TAF
KSYR 032337Z 0400/0424 22007KT P6SM SCT025 BKN060
      TEMPO 0400/0402 BKN025
     FM040400 25008KT P6SM OVC050
     FM041300 27012KT P6SM OVC035=



000
FTUS41 KBGM 032136 AAA
TAFAVP
TAF AMD
KAVP 032136Z 0322/0418 22010G20KT P6SM SCT015 OVC050
      TEMPO 0322/0324 BKN015
     FM040100 22006KT P6SM BKN050
     FM040700 28007KT P6SM SCT060
     FM041500 29010KT P6SM SCT100=



000
FTUS41 KBGM 032131 AAA
TAFELM
TAF AMD
KELM 032131Z 0322/0418 23008KT P6SM OVC015
     FM032300 22006KT P6SM SCT015 OVC040
     FM040600 27006KT P6SM BKN050
     FM041500 28010KT P6SM BKN040=



000
FTUS41 KBGM 032129 AAB
TAFITH
TAF AMD
KITH 032129Z 0321/0418 17010KT P6SM BKN015 OVC060
     FM032300 23010KT P6SM SCT015 OVC050
     FM040500 28010KT P6SM BKN040=



000
FTUS41 KBGM 032126 AAB
TAFSYR
TAF AMD
KSYR 032126Z 0321/0418 18010KT P6SM SCT025 BKN060
      TEMPO 0321/0323 BKN025
     FM032300 21010KT P6SM OVC050
     FM040200 26010KT P6SM OVC050
     FM041500 25012G20KT P6SM OVC035=



000
FTUS41 KBGM 032119 AAB
TAFBGM
TAF AMD
KBGM 032119Z 0321/0418 20010KT P6SM OVC015
     FM040100 22008KT P6SM SCT015 BKN060
     FM040900 26011KT P6SM BKN040=



000
FTUS41 KBGM 031835 AAA
TAFITH
TAF AMD
KITH 031835Z 0319/0418 17020G35KT P6SM OVC060 WS020/19050KT
      TEMPO 0319/0322 BKN015
     FM032300 20010KT P6SM OVC050
     FM040900 25011KT P6SM BKN040=



000
FTUS41 KBGM 031835 AAA
TAFSYR
TAF AMD
KSYR 031835Z 0319/0418 17015G30KT P6SM BKN100 WS020/19050KT
      TEMPO 0319/0322 BKN025
     FM032300 23010KT P6SM OVC050
     FM041500 25012G20KT P6SM OVC035=



000
FTUS41 KBGM 031741
TAFELM
TAF
KELM 031741Z 0318/0418 20010G20KT P6SM OVC050 WS020/19050KT
      TEMPO 0318/0322 BKN025
     FM032300 20008KT P6SM OVC050
     FM040600 25006KT P6SM BKN060
     FM041500 25011KT P6SM BKN040=



000
FTUS41 KBGM 031741
TAFSYR
TAF
KSYR 031741Z 0318/0418 17015G30KT P6SM BKN100 WS020/19050KT
     FM032300 23010KT P6SM OVC050
     FM041500 25012G20KT P6SM OVC035=



000
FTUS41 KBGM 031741
TAFITH
TAF
KITH 031741Z 0318/0418 17020G35KT P6SM OVC060 WS020/19050KT
     FM032300 20010KT P6SM OVC050
     FM040900 25011KT P6SM BKN040=



000
FTUS41 KBGM 031741
TAFAVP
TAF
KAVP 031741Z 0318/0418 18010G20KT P6SM OVC050
      TEMPO 0318/0322 BKN025
     FM040100 23006KT P6SM OVC050
     FM040900 25007KT P6SM SCT100
     FM041500 28011KT P6SM SCT100=



000
FTUS41 KBGM 031741
TAFBGM
TAF
KBGM 031741Z 0318/0418 18015G25KT P6SM OVC025 WS020/19050KT
      TEMPO 0318/0322 OVC007
     FM032300 22010KT P6SM BKN060
     FM040900 26011KT P6SM BKN040=



000
FTUS41 KBGM 031741
TAFAVP
TAF
KAVP 031741Z 0318/0418 18010G20KT P6SM OVC050
      TEMPO 0318/0322 BKN025
     FM040100 23006KT P6SM OVC050
     FM040900 25007KT P6SM SCT100
     FM041500 28011KT P6SM SCT100=



000
FTUS41 KBGM 031741
TAFELM
TAF
KELM 031741Z 0318/0418 20010G20KT P6SM OVC050 WS020/19050KT
      TEMPO 0318/0322 BKN025
     FM032300 20008KT P6SM OVC050
     FM040600 25006KT P6SM BKN060
     FM041500 25011KT P6SM BKN040=



000
FTUS41 KBGM 031741
TAFBGM
TAF
KBGM 031741Z 0318/0418 18015G25KT P6SM OVC025 WS020/19050KT
      TEMPO 0318/0322 OVC007
     FM032300 22010KT P6SM BKN060
     FM040900 26011KT P6SM BKN040=



000
FTUS41 KBGM 031741
TAFITH
TAF
KITH 031741Z 0318/0418 17020G35KT P6SM OVC060 WS020/19050KT
     FM032300 20010KT P6SM OVC050
     FM040900 25011KT P6SM BKN040=



000
FTUS41 KBGM 031741
TAFSYR
TAF
KSYR 031741Z 0318/0418 17015G30KT P6SM BKN100 WS020/19050KT
     FM032300 23010KT P6SM OVC050
     FM041500 25012G20KT P6SM OVC035=



000
FTUS41 KBGM 031728 AAB
TAFBGM
TAF AMD
KBGM 031728Z 0317/0412 18015G25KT P6SM OVC025 WS020/19050KT
      TEMPO 0318/0322 OVC007
     FM032300 22010KT P6SM OVC040=



000
FTUS41 KBGM 031728 AAB
TAFBGM
TAF AMD
KBGM 031728Z 0317/0412 18015G25KT P6SM OVC025 WS020/19050KT
      TEMPO 0318/0322 OVC007
     FM032300 22010KT P6SM OVC040=



000
FTUS41 KBGM 031721 AAA
TAFELM
TAF AMD
KELM 031721Z 0317/0412 20010G20KT P6SM OVC050 WS020/19050KT
      TEMPO 0317/0319 BKN025
     FM032300 20008KT P6SM OVC050=



000
FTUS41 KBGM 031721 AAA
TAFELM
TAF AMD
KELM 031721Z 0317/0412 20010G20KT P6SM OVC050 WS020/19050KT
      TEMPO 0317/0319 BKN025
     FM032300 20008KT P6SM OVC050=



000
FTUS41 KBGM 031721 AAA
TAFITH
TAF AMD
KITH 031721Z 0317/0412 17020G35KT P6SM OVC060 WS020/19050KT
     FM032300 20010KT P6SM OVC050=



000
FTUS41 KBGM 031721 AAA
TAFITH
TAF AMD
KITH 031721Z 0317/0412 17020G35KT P6SM OVC060 WS020/19050KT
     FM032300 20010KT P6SM OVC050=



000
FTUS41 KBGM 031718 AAA
TAFSYR
TAF AMD
KSYR 031718Z 0317/0412 17015G30KT P6SM BKN100 WS020/19050KT
     FM032300 23010KT P6SM OVC050=



000
FTUS41 KBGM 031120
TAFSYR
TAF
KSYR 031120Z 0312/0412 16015G25KT P6SM -RA OVC040 WS020/18050KT
     FM031400 17015G25KT 4SM -RA BR OVC015 WS020/19050KT
      TEMPO 0315/0319 2SM RA BR
     FM032300 23010KT P6SM OVC050=



000
FTUS41 KBGM 031120
TAFELM
TAF
KELM 031120Z 0312/0412 20010G20KT P6SM -RA OVC040 WS020/18045KT
     FM031400 20010G20KT 3SM -RA OVC015 WS020/19050KT
      TEMPO 0315/0319 2SM RA BR OVC008
     FM032300 20008KT P6SM OVC050=



000
FTUS41 KBGM 031120
TAFBGM
TAF
KBGM 031120Z 0312/0412 16015G25KT P6SM -RA OVC025 WS020/18045KT
     FM031500 18015G25KT 3SM -RA OVC015 WS020/19050KT
      TEMPO 0316/0320 2SM RA BR OVC007
     FM032300 22010KT P6SM OVC040=



000
FTUS41 KBGM 031120
TAFAVP
TAF
KAVP 031120Z 0312/0412 18010G20KT 4SM -RA BR OVC015 WS020/19050KT
      TEMPO 0316/0320 2SM RA BR OVC008
     FM040100 23006KT P6SM OVC050=



000
FTUS41 KBGM 031120
TAFITH
TAF
KITH 031120Z 0312/0412 16015G25KT P6SM -RA OVC035 WS020/18045KT
     FM031500 17015G25KT 3SM -RA OVC015 WS020/19050KT
      TEMPO 0315/0319 2SM RA BR OVC007
     FM032000 19010G20KT 5SM -SHRA BR OVC025
     FM032300 20010KT P6SM OVC050=



000
FTUS41 KBGM 030835 AAA
TAFITH
TAF AMD
KITH 030835Z 0309/0406 17015G25KT P6SM -RA OVC035 WS020/18045KT
     FM031500 17015G25KT 3SM -RA OVC015 WS020/19050KT
      TEMPO 0315/0319 2SM RA BR OVC007
     FM032000 19010G20KT 5SM -SHRA BR OVC025
     FM032300 20010KT P6SM OVC045=



000
FTUS41 KBGM 030835 AAA
TAFITH
TAF AMD
KITH 030835Z 0309/0406 17015G25KT P6SM -RA OVC035 WS020/18045KT
     FM031500 17015G25KT 3SM -RA OVC015 WS020/19050KT
      TEMPO 0315/0319 2SM RA BR OVC007
     FM032000 19010G20KT 5SM -SHRA BR OVC025
     FM032300 20010KT P6SM OVC045=



000
FTUS41 KBGM 030835 AAB
TAFELM
TAF AMD
KELM 030835Z 0309/0406 20010G20KT P6SM -RA OVC040 WS020/18045KT
     FM031400 20010G22KT 3SM -RA OVC015 WS020/19050KT
      TEMPO 0315/0319 2SM RA BR OVC008
     FM032300 20008KT P6SM OVC045=



000
FTUS41 KBGM 030835 AAB
TAFSYR
TAF AMD
KSYR 030835Z 0309/0406 12010KT P6SM -SHRA OVC040 WS020/18045KT
     FM031000 14015G25KT P6SM -RA OVC040 WS020/18050KT
     FM031400 17015G25KT 4SM -RA BR OVC015 WS020/19050KT
      TEMPO 0315/0319 2SM RA BR OVC012
     FM032300 23010KT P6SM OVC045=



000
FTUS41 KBGM 030835 AAB
TAFELM
TAF AMD
KELM 030835Z 0309/0406 20010G20KT P6SM -RA OVC040 WS020/18045KT
     FM031400 20010G22KT 3SM -RA OVC015 WS020/19050KT
      TEMPO 0315/0319 2SM RA BR OVC008
     FM032300 20008KT P6SM OVC045=



000
FTUS41 KBGM 030835 AAB
TAFSYR
TAF AMD
KSYR 030835Z 0309/0406 12010KT P6SM -SHRA OVC040 WS020/18045KT
     FM031000 14015G25KT P6SM -RA OVC040 WS020/18050KT
     FM031400 17015G25KT 4SM -RA BR OVC015 WS020/19050KT
      TEMPO 0315/0319 2SM RA BR OVC012
     FM032300 23010KT P6SM OVC045=



000
FTUS41 KBGM 030835 AAC
TAFBGM
TAF AMD
KBGM 030835Z 0309/0406 16020G30KT P6SM OVC035 WS020/18045KT
     FM031000 16020G30KT P6SM -RA OVC025 WS020/18045KT
     FM031500 18015G25KT 3SM -RA OVC015 WS020/19050KT
      TEMPO 0316/0320 2SM RA BR OVC007
     FM032300 20010KT P6SM OVC040=



000
FTUS41 KBGM 030835 AAA
TAFAVP
TAF AMD
KAVP 030835Z 0309/0406 17010KT P6SM -RA OVC040 WS020/18045KT
     FM031200 18010G20KT 3SM -RA BR OVC015 WS020/19050KT
      TEMPO 0316/0320 2SM RA BR OVC008
     FM032300 21006KT P6SM OVC050=



000
FTUS41 KBGM 030835 AAC
TAFBGM
TAF AMD
KBGM 030835Z 0309/0406 16020G30KT P6SM OVC035 WS020/18045KT
     FM031000 16020G30KT P6SM -RA OVC025 WS020/18045KT
     FM031500 18015G25KT 3SM -RA OVC015 WS020/19050KT
      TEMPO 0316/0320 2SM RA BR OVC007
     FM032300 20010KT P6SM OVC040=



000
FTUS41 KBGM 030835 AAA
TAFAVP
TAF AMD
KAVP 030835Z 0309/0406 17010KT P6SM -RA OVC040 WS020/18045KT
     FM031200 18010G20KT 3SM -RA BR OVC015 WS020/19050KT
      TEMPO 0316/0320 2SM RA BR OVC008
     FM032300 21006KT P6SM OVC050=



000
FTUS41 KBGM 030739 AAB
TAFBGM
TAF AMD
KBGM 030739Z 0308/0406 16020G30KT P6SM OVC025 WS020/18045KT
     FM031000 16020G30KT P6SM -RA OVC025 WS020/18045KT
     FM031500 18015G25KT 3SM -RA OVC015 WS020/19050KT
      TEMPO 0316/0320 2SM RA BR OVC007
     FM032300 20010KT P6SM OVC040=



000
FTUS41 KBGM 030736 AAA
TAFSYR
TAF AMD
KSYR 030736Z 0308/0406 12010KT P6SM -SHRA OVC040 WS020/18045KT
     FM031000 14015G25KT P6SM -RA OVC040 WS020/18050KT
     FM031400 17015G25KT 4SM -RA BR OVC015 WS020/19050KT
      TEMPO 0315/0319 2SM RA BR OVC012
     FM032300 23010KT P6SM OVC045=



000
FTUS41 KBGM 030735 AAA
TAFELM
TAF AMD
KELM 030735Z 0308/0406 20010G20KT P6SM -RA OVC040 WS020/18045KT
     FM031400 20010G22KT 3SM -RA OVC015 WS020/19050KT
      TEMPO 0315/0319 2SM RA BR OVC008
     FM032300 20008KT P6SM OVC045=



000
FTUS41 KBGM 030550
TAFELM
TAF
KELM 030550Z 0306/0406 18015G20KT P6SM OVC120
     FM030900 20010G20KT P6SM -RA OVC040 WS020/18045KT
     FM031400 20010G22KT 3SM -RA OVC015 WS020/19050KT
      TEMPO 0315/0319 2SM RA BR OVC008
     FM032300 20008KT P6SM OVC045=



000
FTUS41 KBGM 030550
TAFBGM
TAF
KBGM 030550Z 0306/0406 15010G20KT P6SM OVC120
     FM031000 16015G25KT P6SM -RA OVC035 WS020/18045KT
     FM031500 18015G25KT 3SM -RA OVC015 WS020/19050KT
      TEMPO 0316/0320 2SM RA BR OVC007
     FM032300 20010KT P6SM OVC040=



000
FTUS41 KBGM 030550
TAFSYR
TAF
KSYR 030550Z 0306/0406 10010G20KT P6SM OVC150
     FM030900 14015G25KT P6SM -RA OVC040 WS020/18050KT
     FM031400 17015G25KT 4SM -RA BR OVC015 WS020/19050KT
      TEMPO 0315/0319 2SM RA BR OVC012
     FM032300 23010KT P6SM OVC045=



000
FTUS41 KBGM 030550
TAFITH
TAF
KITH 030550Z 0306/0406 15010G20KT P6SM OVC150
     FM031000 17015G25KT P6SM -RA OVC035 WS020/18045KT
     FM031500 17015G25KT 3SM -RA OVC015 WS020/19050KT
      TEMPO 0315/0319 2SM RA BR OVC007
     FM032000 19010G20KT 5SM -SHRA BR OVC025
     FM032300 20010KT P6SM OVC045=



000
FTUS41 KBGM 030550
TAFAVP
TAF
KAVP 030550Z 0306/0406 16007KT P6SM OVC120
     FM030900 17010KT P6SM -RA OVC040 WS020/18045KT
     FM031200 18010G20KT 3SM -RA BR OVC015 WS020/19050KT
      TEMPO 0316/0320 2SM RA BR OVC008
     FM032300 21006KT P6SM OVC050=



000
FTUS41 KBGM 022340
TAFBGM
TAF
KBGM 022340Z 0300/0324 15010G18KT P6SM OVC120
     FM031000 16015G25KT P6SM -RA OVC035 WS020/18045KT
     FM031500 18015G25KT 3SM -RA OVC015 WS020/19050KT
      TEMPO 0316/0319 2SM RA BR OVC007
     FM032100 20010G20KT 5SM -SHRA BR OVC025=



000
FTUS41 KBGM 022340
TAFAVP
TAF
KAVP 022340Z 0300/0324 16010KT P6SM OVC120
     FM030900 17010KT P6SM -RA OVC040 WS020/18045KT
     FM031200 18010G20KT 3SM -RA BR OVC015 WS020/19050KT
      TEMPO 0316/0320 2SM RA BR OVC008
     FM032100 21010KT 5SM -RA BR OVC015=



000
FTUS41 KBGM 022340
TAFELM
TAF
KELM 022340Z 0300/0324 17010KT P6SM OVC120
     FM030900 20012G22KT P6SM -RA OVC040 WS020/18045KT
     FM031400 20012G22KT 3SM -RA OVC015 WS020/19050KT
      TEMPO 0315/0318 2SM RA BR OVC008
     FM032000 22010G18KT P6SM -SHRA OVC025=



000
FTUS41 KBGM 022340
TAFELM
TAF
KELM 022340Z 0300/0324 17010KT P6SM OVC120
     FM030900 20012G22KT P6SM -RA OVC040 WS020/18045KT
     FM031400 20012G22KT 3SM -RA OVC015 WS020/19050KT
      TEMPO 0315/0318 2SM RA BR OVC008
     FM032000 22010G18KT P6SM -SHRA OVC025=



000
FTUS41 KBGM 022340
TAFITH
TAF
KITH 022340Z 0300/0324 15012G18KT P6SM OVC120
     FM031000 17015G25KT P6SM -RA OVC035 WS020/18045KT
     FM031500 17015G25KT 3SM -RA OVC015 WS020/19050KT
      TEMPO 0316/0319 2SM RA BR OVC007
     FM032000 19010G20KT 5SM -SHRA BR OVC025=



000
FTUS41 KBGM 022340
TAFSYR
TAF
KSYR 022340Z 0300/0324 11010G18KT P6SM OVC120
     FM030900 15015G25KT P6SM -RA OVC040 WS020/18045KT
     FM031400 17015G25KT 4SM -RA BR OVC015 WS020/19050KT
      TEMPO 0315/0319 2SM RA BR OVC008
     FM032000 18010G18KT 5SM -SHRA BR OVC025=



000
FTUS41 KBGM 022340
TAFAVP
TAF
KAVP 022340Z 0300/0324 16010KT P6SM OVC120
     FM030900 17010KT P6SM -RA OVC040 WS020/18045KT
     FM031200 18010G20KT 3SM -RA BR OVC015 WS020/19050KT
      TEMPO 0316/0320 2SM RA BR OVC008
     FM032100 21010KT 5SM -RA BR OVC015=



000
FTUS41 KBGM 022340
TAFBGM
TAF
KBGM 022340Z 0300/0324 15010G18KT P6SM OVC120
     FM031000 16015G25KT P6SM -RA OVC035 WS020/18045KT
     FM031500 18015G25KT 3SM -RA OVC015 WS020/19050KT
      TEMPO 0316/0319 2SM RA BR OVC007
     FM032100 20010G20KT 5SM -SHRA BR OVC025=



000
FTUS41 KBGM 022340
TAFITH
TAF
KITH 022340Z 0300/0324 15012G18KT P6SM OVC120
     FM031000 17015G25KT P6SM -RA OVC035 WS020/18045KT
     FM031500 17015G25KT 3SM -RA OVC015 WS020/19050KT
      TEMPO 0316/0319 2SM RA BR OVC007
     FM032000 19010G20KT 5SM -SHRA BR OVC025=



000
FTUS41 KBGM 022340
TAFSYR
TAF
KSYR 022340Z 0300/0324 11010G18KT P6SM OVC120
     FM030900 15015G25KT P6SM -RA OVC040 WS020/18045KT
     FM031400 17015G25KT 4SM -RA BR OVC015 WS020/19050KT
      TEMPO 0315/0319 2SM RA BR OVC008
     FM032000 18010G18KT 5SM -SHRA BR OVC025=



    US Dept of Commerce
    National Oceanic and Atmospheric Administration
    National Weather Service
    1325 East West Highway
    Silver Spring, MD 20910
    Page Author: NWS Internet Services Team
Disclaimer
Information Quality
Credits
Glossary
Privacy Policy
Freedom of Information Act (FOIA)
About Us
Career Opportunities